Time;durP1;ratioP1;P1;durP2;ratioP2;P2;SDS_P1;SDS_P2;PMS_P1;PMS_P2;Temp;Humidity;BMP_temperature;BMP_pressure;BME280_temperature;BME280_humidity;BME280_pressure;Samples;Min_cycle;Max_cycle;Signal;HPM_P1;HPM_P2
2021/11/05 00:00:30;;;;;;;18.92;11.05;;;;;;;3.17;100.00;101531.38;5074290;28;20131;-37
2021/11/05 00:02:57;;;;;;;14.40;10.00;;;;;;;3.32;100.00;101561.81;5074253;28;20031;-37
2021/11/05 00:05:24;;;;;;;17.42;10.38;;;;;;;3.35;100.00;101563.31;5074647;28;20631;-37
2021/11/05 00:07:49;;;;;;;11.35;9.10;;;;;;;3.22;100.00;101558.47;5074728;28;20042;-37
2021/11/05 00:10:15;;;;;;;12.47;9.37;;;;;;;3.15;100.00;101565.47;5074402;28;20025;-37
2021/11/05 00:12:40;;;;;;;13.77;9.80;;;;;;;3.24;100.00;101569.81;5075113;28;20035;-37
2021/11/05 00:15:07;;;;;;;15.10;10.70;;;;;;;3.20;100.00;101565.81;5074297;28;20051;-36
2021/11/05 00:17:32;;;;;;;14.90;10.07;;;;;;;3.17;100.00;101566.13;5074441;28;20035;-37
2021/11/05 00:19:57;;;;;;;13.83;10.80;;;;;;;3.10;100.00;101562.47;5074138;28;20028;-36
2021/11/05 00:22:23;;;;;;;10.77;9.27;;;;;;;3.11;100.00;101574.81;5074445;28;20107;-37
2021/11/05 00:24:48;;;;;;;12.87;9.73;;;;;;;3.00;100.00;101562.59;5074330;28;20121;-36
2021/11/05 00:27:14;;;;;;;13.60;9.15;;;;;;;3.12;100.00;101575.66;5074097;28;20021;-36
2021/11/05 00:29:42;;;;;;;14.93;10.75;;;;;;;3.11;100.00;101564.13;5073992;28;20590;-36
2021/11/05 00:32:08;;;;;;;16.52;11.60;;;;;;;3.31;100.00;101578.84;5073920;28;20388;-36
2021/11/05 00:34:33;;;;;;;11.38;9.30;;;;;;;3.35;100.00;101593.56;5074096;28;20020;-36
2021/11/05 00:36:59;;;;;;;15.20;9.10;;;;;;;3.32;100.00;101585.88;5074344;28;20055;-36
2021/11/05 00:39:24;;;;;;;11.10;8.53;;;;;;;3.23;100.00;101592.22;5073887;28;20050;-36
2021/11/05 00:41:49;;;;;;;14.00;9.43;;;;;;;3.21;100.00;101588.03;5074279;28;20062;-36
2021/11/05 00:44:15;;;;;;;12.70;9.53;;;;;;;3.29;100.00;101604.09;5073446;28;20024;-36
2021/11/05 00:46:40;;;;;;;12.03;9.23;;;;;;;3.29;100.00;101601.41;5074360;28;20025;-36
2021/11/05 00:49:05;;;;;;;12.97;9.60;;;;;;;3.25;100.00;101608.91;5073886;28;20051;-36
2021/11/05 00:51:31;;;;;;;14.17;9.80;;;;;;;3.26;100.00;101605.25;5073646;28;20025;-37
2021/11/05 00:53:56;;;;;;;13.47;8.73;;;;;;;3.28;100.00;101602.41;5073569;28;20024;-37
2021/11/05 00:56:22;;;;;;;13.43;8.70;;;;;;;3.27;100.00;101606.06;5072588;28;20040;-36
2021/11/05 00:58:47;;;;;;;13.85;9.18;;;;;;;3.28;100.00;101605.09;5073472;28;20029;-36
2021/11/05 01:01:12;;;;;;;14.23;9.10;;;;;;;3.38;100.00;101603.09;5073192;28;20032;-37
2021/11/05 01:03:38;;;;;;;13.53;8.77;;;;;;;3.45;100.00;101605.94;5074251;28;20107;-36
2021/11/05 01:06:03;;;;;;;13.03;8.70;;;;;;;3.32;100.00;101588.56;5073131;28;20029;-36
2021/11/05 01:08:29;;;;;;;11.70;8.27;;;;;;;3.31;100.00;101597.56;5073496;28;20468;-36
2021/11/05 01:10:54;;;;;;;9.60;7.28;;;;;;;3.40;100.00;101610.94;5073124;28;20538;-36
2021/11/05 01:13:20;;;;;;;10.02;7.68;;;;;;;3.47;100.00;101622.66;5073284;28;20036;-36
2021/11/05 01:15:45;;;;;;;10.18;7.57;;;;;;;3.41;100.00;101617.97;5073322;28;20020;-36
2021/11/05 01:18:11;;;;;;;9.93;7.33;;;;;;;3.34;100.00;101626.66;5073666;28;20054;-36
2021/11/05 01:20:36;;;;;;;9.93;7.03;;;;;;;3.35;100.00;101620.28;5073449;28;20457;-36
2021/11/05 01:23:02;;;;;;;9.07;6.93;;;;;;;3.31;100.00;101632.31;5073233;28;20536;-37
2021/11/05 01:25:28;;;;;;;11.90;7.45;;;;;;;3.32;100.00;101635.84;5073167;28;20137;-37
2021/11/05 01:27:53;;;;;;;8.38;6.80;;;;;;;3.34;100.00;101631.16;5073096;28;20035;-37
2021/11/05 01:30:19;;;;;;;12.82;8.23;;;;;;;3.25;100.00;101611.59;5072831;28;20029;-36
2021/11/05 01:32:46;;;;;;;10.07;6.83;;;;;;;3.46;100.00;101637.84;5073350;28;20024;-36
2021/11/05 01:35:12;;;;;;;9.40;6.47;;;;;;;3.41;100.00;101629.50;5073252;28;20071;-36
2021/11/05 01:37:37;;;;;;;10.90;6.75;;;;;;;3.35;100.00;101643.53;5073566;28;20045;-36
2021/11/05 01:40:04;;;;;;;9.10;6.20;;;;;;;3.38;100.00;101645.88;5073278;28;20025;-37
2021/11/05 01:42:32;;;;;;;8.80;5.35;;;;;;;3.19;100.00;101656.84;5073232;28;20293;-37
2021/11/05 01:44:57;;;;;;;12.15;5.80;;;;;;;3.21;100.00;101661.03;5072930;28;20032;-36
2021/11/05 01:47:23;;;;;;;8.33;5.50;;;;;;;3.10;100.00;101639.97;5073298;28;20043;-36
2021/11/05 01:49:48;;;;;;;8.10;5.40;;;;;;;3.16;100.00;101652.66;5072632;28;20469;-36
2021/11/05 01:52:15;;;;;;;7.32;5.45;;;;;;;3.17;100.00;101658.84;5072930;28;20447;-36
2021/11/05 01:54:41;;;;;;;7.68;5.20;;;;;;;2.99;100.00;101645.59;5072498;28;20115;-36
2021/11/05 01:57:07;;;;;;;8.77;6.25;;;;;;;3.12;100.00;101666.50;5072874;28;20032;-36
2021/11/05 01:59:35;;;;;;;8.13;5.55;;;;;;;3.13;100.00;101674.38;5073034;28;20146;-36
2021/11/05 02:02:03;;;;;;;8.02;5.43;;;;;;;3.14;100.00;101675.22;5072869;28;20033;-37
2021/11/05 02:04:28;;;;;;;9.88;5.60;;;;;;;3.02;100.00;101656.78;5073471;28;20370;-36
2021/11/05 02:06:55;;;;;;;8.90;5.50;;;;;;;3.11;100.00;101676.38;5073417;28;20029;-36
2021/11/05 02:09:23;;;;;;;9.20;5.97;;;;;;;3.21;100.00;101687.75;5072650;28;20071;-36
2021/11/05 02:11:51;;;;;;;7.40;5.15;;;;;;;3.20;100.00;101690.59;5071500;28;20033;-36
2021/11/05 02:14:20;;;;;;;5.50;4.57;;;;;;;3.02;100.00;101677.31;5072797;28;20032;-36
2021/11/05 02:16:50;;;;;;;6.28;5.20;;;;;;;3.19;100.00;101692.44;5072842;28;20039;-36
2021/11/05 02:19:19;;;;;;;7.32;5.32;;;;;;;3.14;100.00;101693.94;5072907;28;20071;-36
2021/11/05 02:21:46;;;;;;;8.90;5.38;;;;;;;3.19;100.00;101697.78;5072658;28;20043;-36
2021/11/05 02:24:12;;;;;;;7.75;4.85;;;;;;;3.19;100.00;101702.31;5073744;28;20021;-36
2021/11/05 02:26:39;;;;;;;8.30;5.05;;;;;;;3.07;100.00;101688.38;5076402;28;20033;-36
2021/11/05 02:29:05;;;;;;;9.57;5.75;;;;;;;3.13;100.00;101701.13;5076065;28;20025;-36
2021/11/05 02:31:32;;;;;;;7.47;4.60;;;;;;;3.10;100.00;101707.59;5077012;28;20063;-36
2021/11/05 02:33:58;;;;;;;10.98;5.07;;;;;;;3.05;100.00;101712.59;5077208;28;20090;-36
2021/11/05 02:36:24;;;;;;;9.85;5.07;;;;;;;3.05;100.00;101709.09;5076773;28;20060;-36
2021/11/05 02:38:49;;;;;;;5.43;4.65;;;;;;;3.02;100.00;101707.56;5076431;28;20084;-36
2021/11/05 02:41:15;;;;;;;9.98;5.43;;;;;;;3.10;100.00;101706.75;5076398;28;20032;-36
2021/11/05 02:43:40;;;;;;;6.93;5.00;;;;;;;3.06;100.00;101716.94;5075772;28;20067;-36
2021/11/05 02:46:06;;;;;;;7.90;4.50;;;;;;;3.07;100.00;101712.41;5076135;28;20091;-36
2021/11/05 02:48:33;;;;;;;9.70;5.40;;;;;;;3.05;100.00;101714.44;5076234;28;20389;-36
2021/11/05 02:50:59;;;;;;;10.13;4.88;;;;;;;3.03;100.00;101727.97;5075911;28;20028;-36
2021/11/05 02:53:24;;;;;;;8.27;5.38;;;;;;;3.06;100.00;101718.78;5076495;28;20028;-36
2021/11/05 02:55:50;;;;;;;7.53;4.40;;;;;;;2.94;100.00;101725.41;5076188;28;20064;-36
2021/11/05 02:58:15;;;;;;;6.33;4.90;;;;;;;2.99;100.00;101725.75;5076656;28;20024;-36
2021/11/05 03:00:45;;;;;;;11.65;5.18;;;;;;;2.90;100.00;101718.69;5075726;28;20271;-36
2021/11/05 03:03:15;;;;;;;8.63;4.82;;;;;;;3.05;100.00;101744.66;5075903;28;20468;-36
2021/11/05 03:05:41;;;;;;;9.52;4.78;;;;;;;2.96;100.00;101756.31;5076600;28;20033;-37
2021/11/05 03:08:07;;;;;;;12.20;5.30;;;;;;;2.97;100.00;101754.47;5076002;28;20086;-37
2021/11/05 03:10:33;;;;;;;9.65;5.35;;;;;;;3.01;100.00;101751.31;5075582;28;20332;-36
2021/11/05 03:12:59;;;;;;;9.27;4.78;;;;;;;3.04;100.00;101751.00;5076301;28;20071;-36
2021/11/05 03:15:24;;;;;;;7.05;4.75;;;;;;;2.96;100.00;101760.81;5075261;28;20461;-37
2021/11/05 03:17:50;;;;;;;8.10;4.67;;;;;;;2.81;100.00;101745.38;5075705;28;20470;-36
2021/11/05 03:20:17;;;;;;;5.70;4.15;;;;;;;2.89;100.00;101757.13;5075418;28;20111;-36
2021/11/05 03:22:43;;;;;;;8.10;4.70;;;;;;;2.86;100.00;101768.09;5075653;28;20035;-36
2021/11/05 03:25:09;;;;;;;;;;;;;;;2.92;100.00;101762.13;5075751;28;20120;-36
2021/11/05 03:27:35;;;;;;;6.75;4.55;;;;;;;2.86;100.00;101765.44;5075471;28;19944;-36
2021/11/05 03:30:01;;;;;;;7.57;4.53;;;;;;;2.80;100.00;101781.09;5074932;28;20070;-36
2021/11/05 03:32:26;;;;;;;7.22;4.38;;;;;;;2.74;100.00;101771.03;5075226;28;20460;-36
2021/11/05 03:34:52;;;;;;;6.63;3.90;;;;;;;2.65;100.00;101771.97;5074967;28;20052;-36
2021/11/05 03:37:17;;;;;;;5.90;4.13;;;;;;;2.61;100.00;101786.63;5075393;28;20127;-36
2021/11/05 03:39:42;;;;;;;6.33;3.87;;;;;;;2.65;100.00;101782.66;5075566;28;20428;-36
2021/11/05 03:42:08;;;;;;;9.73;4.47;;;;;;;2.68;100.00;101790.34;5075343;28;20423;-36
2021/11/05 03:44:34;;;;;;;5.72;3.50;;;;;;;2.54;100.00;101788.25;5074967;28;20035;-36
2021/11/05 03:47:00;;;;;;;10.05;4.35;;;;;;;2.62;100.00;101793.66;5075255;28;20025;-36
2021/11/05 03:49:25;;;;;;;6.10;4.32;;;;;;;2.69;100.00;101800.06;5075074;28;20029;-36
2021/11/05 03:51:50;;;;;;;7.33;4.83;;;;;;;2.63;100.00;101784.63;5074925;28;20464;-37
2021/11/05 03:54:16;;;;;;;6.73;4.37;;;;;;;2.66;100.00;101804.88;5074713;28;20020;-34
2021/11/05 03:56:42;;;;;;;5.13;4.15;;;;;;;2.74;100.00;101813.78;5074728;28;20457;-35
2021/11/05 03:59:07;;;;;;;7.25;4.07;;;;;;;2.70;100.00;101812.41;5074612;28;20024;-35
2021/11/05 04:01:33;;;;;;;9.80;5.47;;;;;;;2.70;100.00;101823.09;5075182;28;20058;-36
2021/11/05 04:03:58;;;;;;;7.83;4.33;;;;;;;2.73;100.00;101824.59;5075301;28;20384;-36
2021/11/05 04:06:24;;;;;;;6.60;4.30;;;;;;;2.62;100.00;101815.00;5075019;28;20020;-36
2021/11/05 04:08:50;;;;;;;6.20;4.00;;;;;;;2.78;100.00;101825.84;5074085;28;20442;-36
2021/11/05 04:11:17;;;;;;;6.63;4.38;;;;;;;2.55;100.00;101820.16;5074431;28;20021;-35
2021/11/05 04:13:43;;;;;;;6.32;4.15;;;;;;;2.47;100.00;101822.72;5074557;28;20373;-35
2021/11/05 04:16:09;;;;;;;6.30;4.03;;;;;;;2.58;100.00;101851.03;5074631;28;20036;-35
2021/11/05 04:18:35;;;;;;;7.30;3.85;;;;;;;2.45;100.00;101832.75;5074511;28;20425;-35
2021/11/05 04:21:00;;;;;;;7.00;3.97;;;;;;;2.54;100.00;101855.84;5074190;28;20032;-35
2021/11/05 04:23:26;;;;;;;8.50;3.97;;;;;;;2.47;100.00;101859.28;5074466;28;20024;-35
2021/11/05 04:25:52;;;;;;;8.97;3.90;;;;;;;2.39;100.00;101859.19;5072342;28;20120;-35
2021/11/05 04:28:18;;;;;;;4.68;3.78;;;;;;;2.38;100.00;101850.34;5073783;28;20024;-35
2021/11/05 04:30:44;;;;;;;10.35;5.20;;;;;;;2.48;100.00;101876.97;5073738;28;20435;-35
2021/11/05 04:33:10;;;;;;;6.78;3.78;;;;;;;2.48;100.00;101877.81;5074452;28;20035;-36
2021/11/05 04:35:37;;;;;;;8.82;3.67;;;;;;;2.44;100.00;101880.94;5073853;28;20036;-35
2021/11/05 04:38:03;;;;;;;6.97;4.38;;;;;;;2.34;100.00;101864.97;5074734;28;20097;-35
2021/11/05 04:40:29;;;;;;;5.78;3.97;;;;;;;2.48;100.00;101887.66;5073954;28;20024;-35
2021/11/05 04:42:55;;;;;;;7.65;4.07;;;;;;;2.33;100.00;101879.34;5073830;28;20497;-35
2021/11/05 04:45:21;;;;;;;8.02;4.45;;;;;;;2.37;100.00;101879.88;5073714;28;20032;-35
2021/11/05 04:47:47;;;;;;;5.82;3.38;;;;;;;2.40;100.00;101893.75;5073198;28;20342;-35
2021/11/05 04:50:12;;;;;;;5.57;3.63;;;;;;;2.37;100.00;101895.88;5074202;28;20086;-36
2021/11/05 04:52:39;;;;;;;5.93;3.50;;;;;;;2.25;100.00;101896.13;5074002;28;20035;-36
2021/11/05 04:55:06;;;;;;;5.90;3.28;;;;;;;2.26;100.00;101904.97;5073515;28;20032;-36
2021/11/05 04:57:31;;;;;;;6.95;3.53;;;;;;;2.23;100.00;101894.56;5074237;28;20028;-36
2021/11/05 04:59:56;;;;;;;6.97;3.73;;;;;;;2.24;100.00;101913.09;5073523;28;20040;-36
2021/11/05 05:02:22;;;;;;;7.87;3.33;;;;;;;2.33;100.00;101912.19;5073595;28;20020;-36
2021/11/05 05:04:47;;;;;;;5.90;3.33;;;;;;;2.33;100.00;101916.69;5073605;28;20025;-36
2021/11/05 05:07:14;;;;;;;5.47;2.77;;;;;;;2.11;100.00;101917.97;5073744;28;20082;-36
2021/11/05 05:09:40;;;;;;;7.25;3.28;;;;;;;2.12;100.00;101919.66;5073118;28;20024;-36
2021/11/05 05:12:06;;;;;;;6.32;3.35;;;;;;;1.99;100.00;101917.31;5074169;28;20403;-36
2021/11/05 05:14:31;;;;;;;5.28;3.10;;;;;;;2.13;100.00;101926.66;5073052;28;20086;-36
2021/11/05 05:16:57;;;;;;;7.97;3.80;;;;;;;2.19;100.00;101926.06;5074002;28;20025;-36
2021/11/05 05:19:22;;;;;;;4.77;3.33;;;;;;;2.24;100.00;101928.28;5073244;28;20365;-36
2021/11/05 05:21:48;;;;;;;10.07;4.27;;;;;;;2.29;100.00;101937.53;5073740;28;20028;-36
2021/11/05 05:24:14;;;;;;;7.73;3.33;;;;;;;2.11;100.00;101936.66;5073141;28;20097;-36
2021/11/05 05:26:39;;;;;;;;;;;;;;;2.22;100.00;101932.94;5073881;28;20032;-36
2021/11/05 05:29:05;;;;;;;9.80;4.20;;;;;;;2.19;100.00;101935.88;5073059;28;20249;-36
2021/11/05 05:31:30;;;;;;;5.10;3.80;;;;;;;2.22;100.00;101940.94;5073402;28;20263;-37
2021/11/05 05:33:56;;;;;;;6.68;3.80;;;;;;;2.21;100.00;101950.78;5072843;28;20024;-36
2021/11/05 05:36:21;;;;;;;4.17;3.17;;;;;;;2.16;100.00;101949.56;5073434;28;20112;-35
2021/11/05 05:38:46;;;;;;;9.77;4.13;;;;;;;2.21;100.00;101956.13;5073744;28;20040;-35
2021/11/05 05:41:12;;;;;;;6.07;4.23;;;;;;;2.20;100.00;101958.94;5072671;28;20025;-36
2021/11/05 05:43:37;;;;;;;9.57;4.30;;;;;;;2.28;100.00;101941.16;5073063;28;20056;-35
2021/11/05 05:46:03;;;;;;;6.03;4.67;;;;;;;2.31;100.00;101943.56;5073445;28;20271;-35
2021/11/05 05:48:28;;;;;;;7.97;4.30;;;;;;;2.46;100.00;101949.22;5073483;28;20103;-35
2021/11/05 05:50:53;;;;;;;10.00;5.20;;;;;;;2.43;100.00;101964.69;5073141;28;20024;-35
2021/11/05 05:53:21;;;;;;;10.07;5.47;;;;;;;2.32;100.00;101955.91;5073737;28;20381;-35
2021/11/05 05:55:46;;;;;;;9.73;5.10;;;;;;;2.44;100.00;101963.69;5073332;28;20025;-35
2021/11/05 05:58:12;;;;;;;9.40;5.55;;;;;;;2.54;100.00;101977.84;5073145;28;20055;-35
2021/11/05 06:00:37;;;;;;;7.77;5.40;;;;;;;2.47;100.00;101984.75;5077238;28;20084;-35
2021/11/05 06:03:03;;;;;;;9.35;6.25;;;;;;;2.57;100.00;101983.72;5076850;28;20397;-35
2021/11/05 06:05:28;;;;;;;9.73;5.70;;;;;;;2.55;100.00;101982.19;5076850;28;20487;-36
2021/11/05 06:07:54;;;;;;;8.47;5.73;;;;;;;2.58;100.00;101985.38;5077237;28;20074;-36
2021/11/05 06:10:19;;;;;;;9.10;6.20;;;;;;;2.59;100.00;101988.91;5077168;28;20029;-36
2021/11/05 06:12:44;;;;;;;11.90;6.43;;;;;;;2.61;100.00;101994.09;5076620;28;20381;-36
2021/11/05 06:15:10;;;;;;;9.37;5.70;;;;;;;2.41;100.00;101986.22;5077070;28;20024;-36
2021/11/05 06:17:36;;;;;;;9.07;5.85;;;;;;;2.37;100.00;101992.00;5076509;28;20033;-36
2021/11/05 06:20:04;;;;;;;8.83;6.13;;;;;;;2.26;100.00;101982.38;5076385;28;20053;-36
2021/11/05 06:22:30;;;;;;;12.07;6.85;;;;;;;2.37;100.00;102002.66;5076933;28;20020;-35
2021/11/05 06:24:57;;;;;;;12.60;6.80;;;;;;;2.49;100.00;102012.13;5075437;28;20553;-35
2021/11/05 06:27:23;;;;;;;10.35;6.70;;;;;;;2.44;100.00;102014.41;5076234;28;20259;-36
2021/11/05 06:29:49;;;;;;;9.93;6.15;;;;;;;2.27;100.00;102008.06;5076370;28;20036;-36
2021/11/05 06:32:14;;;;;;;9.53;6.97;;;;;;;2.39;100.00;102006.03;5076792;28;20069;-36
2021/11/05 06:34:40;;;;;;;13.47;7.30;;;;;;;2.53;100.00;102025.03;5076086;28;20025;-35
2021/11/05 06:37:05;;;;;;;13.27;6.83;;;;;;;2.27;100.00;102016.06;5076368;28;20125;-35
2021/11/05 06:39:31;;;;;;;10.70;5.93;;;;;;;2.24;100.00;102030.53;5076500;28;20033;-35
2021/11/05 06:41:57;;;;;;;9.75;6.07;;;;;;;2.39;100.00;102040.72;5075887;28;20029;-36
2021/11/05 06:44:23;;;;;;;10.80;6.35;;;;;;;2.21;100.00;102044.19;5076252;28;20036;-35
2021/11/05 06:46:49;;;;;;;9.07;5.93;;;;;;;2.26;100.00;102044.59;5076706;28;20036;-35
2021/11/05 06:49:14;;;;;;;8.63;6.37;;;;;;;2.23;100.00;102039.53;5076585;28;20054;-35
2021/11/05 06:51:39;;;;;;;10.60;6.97;;;;;;;2.27;100.00;102024.91;5076147;28;20025;-35
2021/11/05 06:54:05;;;;;;;12.50;7.10;;;;;;;2.37;100.00;102064.06;5075782;28;20024;-35
2021/11/05 06:56:30;;;;;;;9.80;7.23;;;;;;;2.40;100.00;102055.78;5076096;28;20107;-35
2021/11/05 06:58:56;;;;;;;11.37;7.20;;;;;;;2.50;100.00;102064.56;5075743;28;20021;-35
2021/11/05 07:01:23;;;;;;;9.25;7.28;;;;;;;2.44;100.00;102073.16;5075440;28;20084;-35
2021/11/05 07:03:48;;;;;;;16.13;8.85;;;;;;;2.55;100.00;102076.50;5075780;28;20036;-35
2021/11/05 07:06:13;;;;;;;10.50;7.67;;;;;;;2.42;100.00;102064.47;5076290;28;20021;-35
2021/11/05 07:08:39;;;;;;;12.80;7.83;;;;;;;2.51;100.00;102074.25;5076427;28;20063;-36
2021/11/05 07:11:04;;;;;;;11.83;7.60;;;;;;;2.66;100.00;102083.47;5075218;28;20431;-35
2021/11/05 07:13:29;;;;;;;12.03;7.87;;;;;;;2.61;100.00;102072.38;5075633;28;20046;-35
2021/11/05 07:15:55;;;;;;;10.10;7.53;;;;;;;2.63;100.00;102094.44;5075467;28;20032;-35
2021/11/05 07:18:21;;;;;;;9.75;7.30;;;;;;;2.73;100.00;102102.38;5075427;28;20115;-36
2021/11/05 07:20:47;;;;;;;13.57;8.20;;;;;;;2.69;100.00;102093.03;5075754;28;20086;-36
2021/11/05 07:23:13;;;;;;;12.93;8.07;;;;;;;2.65;100.00;102094.31;5075723;28;20450;-36
2021/11/05 07:25:40;;;;;;;12.02;7.93;;;;;;;2.65;100.00;102092.47;5075330;28;20043;-36
2021/11/05 07:28:05;;;;;;;10.63;7.35;;;;;;;2.83;100.00;102113.84;5075518;28;20111;-36
2021/11/05 07:30:31;;;;;;;10.43;8.00;;;;;;;2.77;100.00;102123.31;5074999;28;20035;-36
2021/11/05 07:32:56;;;;;;;11.75;8.57;;;;;;;2.84;100.00;102124.41;5074963;28;20530;-36
2021/11/05 07:35:23;;;;;;;12.52;8.82;;;;;;;2.78;100.00;102118.81;5075549;28;20025;-36
2021/11/05 07:37:48;;;;;;;13.20;8.82;;;;;;;2.89;100.00;102128.47;5075873;28;20097;-36
2021/11/05 07:40:15;;;;;;;12.93;9.80;;;;;;;2.78;100.00;102119.69;5075852;28;20017;-36
2021/11/05 07:42:42;;;;;;;13.10;9.27;;;;;;;2.81;100.00;102137.22;5075357;28;20032;-36
2021/11/05 07:45:10;;;;;;;12.60;8.90;;;;;;;2.94;100.00;102139.56;5075248;28;20028;-36
2021/11/05 07:47:35;;;;;;;10.68;7.90;;;;;;;3.03;100.00;102144.00;5074906;28;20089;-36
2021/11/05 07:50:02;;;;;;;12.00;9.70;;;;;;;3.14;100.00;102151.81;5074597;28;20025;-36
2021/11/05 07:52:27;;;;;;;14.70;9.32;;;;;;;3.29;100.00;102152.97;5075407;28;20028;-36
2021/11/05 07:54:53;;;;;;;13.17;9.10;;;;;;;3.29;100.00;102154.81;5075112;28;20029;-36
2021/11/05 07:57:19;;;;;;;14.80;9.27;;;;;;;3.44;100.00;102160.47;5075181;28;20028;-36
2021/11/05 07:59:44;;;;;;;15.02;10.32;;;;;;;3.58;100.00;102155.44;5074431;28;20113;-36
2021/11/05 08:02:10;;;;;;;13.00;8.00;;;;;;;3.55;100.00;102160.25;5073490;28;20032;-36
2021/11/05 08:04:35;;;;;;;12.05;9.23;;;;;;;3.68;100.00;102146.50;5074302;28;20028;-36
2021/11/05 08:07:01;;;;;;;12.68;9.32;;;;;;;3.84;100.00;102165.34;5074511;28;20028;-36
2021/11/05 08:09:26;;;;;;;14.10;10.05;;;;;;;3.94;100.00;102176.81;5074471;28;20033;-36
2021/11/05 08:11:52;;;;;;;12.80;9.40;;;;;;;3.77;100.00;102138.38;5074321;28;20431;-36
2021/11/05 08:14:17;;;;;;;15.13;10.80;;;;;;;4.12;100.00;102182.97;5074137;28;20089;-36
2021/11/05 08:16:43;;;;;;;16.13;10.10;;;;;;;4.17;100.00;102161.09;5074918;28;20029;-36
2021/11/05 08:19:08;;;;;;;21.33;10.60;;;;;;;4.41;100.00;102184.53;5074936;28;20040;-36
2021/11/05 08:21:34;;;;;;;18.30;11.17;;;;;;;4.44;100.00;102170.81;5073932;28;20031;-36
2021/11/05 08:24:00;;;;;;;16.55;11.85;;;;;;;4.62;100.00;102192.16;5074675;28;20502;-36
2021/11/05 08:26:28;;;;;;;16.30;11.43;;;;;;;4.64;100.00;102174.13;5073863;28;20060;-36
2021/11/05 08:28:54;;;;;;;15.40;10.88;;;;;;;4.79;100.00;102202.00;5073961;28;20040;-36
2021/11/05 08:31:20;;;;;;;17.60;11.02;;;;;;;4.93;100.00;102199.69;5073999;28;20062;-36
2021/11/05 08:33:46;;;;;;;16.67;10.80;;;;;;;5.00;100.00;102206.94;5074404;28;20127;-36
2021/11/05 08:36:14;;;;;;;19.05;12.40;;;;;;;5.13;100.00;102212.69;5074160;28;20060;-36
2021/11/05 08:38:40;;;;;;;15.38;10.57;;;;;;;5.08;100.00;102203.47;5074621;28;20048;-36
2021/11/05 08:41:07;;;;;;;15.50;9.88;;;;;;;5.28;100.00;102210.22;5073806;28;20029;-36
2021/11/05 08:43:34;;;;;;;14.98;9.35;;;;;;;5.27;100.00;102196.97;5074473;28;20458;-36
2021/11/05 08:46:00;;;;;;;14.00;10.25;;;;;;;5.52;100.00;102219.34;5073734;28;20039;-36
2021/11/05 08:48:28;;;;;;;19.33;10.73;;;;;;;5.58;100.00;102221.38;5074506;28;20377;-36
2021/11/05 08:50:55;;;;;;;13.52;9.52;;;;;;;5.61;100.00;102227.25;5074058;28;20093;-36
2021/11/05 08:53:20;;;;;;;12.80;8.98;;;;;;;5.67;100.00;102236.50;5073665;28;20052;-36
2021/11/05 08:55:47;;;;;;;14.97;9.27;;;;;;;5.65;100.00;102206.28;5074032;28;20150;-36
2021/11/05 08:58:13;;;;;;;23.75;11.50;;;;;;;5.94;100.00;102238.91;5072657;28;20439;-36
2021/11/05 09:00:38;;;;;;;14.98;9.32;;;;;;;6.04;100.00;102243.28;5073568;28;20055;-36
2021/11/05 09:03:05;;;;;;;9.45;8.15;;;;;;;6.11;100.00;102239.75;5073781;28;20028;-36
2021/11/05 09:05:30;;;;;;;15.02;8.60;;;;;;;6.27;100.00;102240.75;5074229;28;20025;-36
2021/11/05 09:07:56;;;;;;;13.25;7.72;;;;;;;6.21;100.00;102228.84;5073434;28;20120;-36
2021/11/05 09:10:22;;;;;;;12.70;7.95;;;;;;;6.40;100.00;102249.16;5073371;28;20158;-36
2021/11/05 09:12:48;;;;;;;13.93;7.82;;;;;;;6.37;100.00;102223.47;5073607;28;20031;-36
2021/11/05 09:15:18;;;;;;;17.13;8.15;;;;;;;6.60;100.00;102247.78;5073046;28;20036;-36
2021/11/05 09:17:44;;;;;;;15.80;8.23;;;;;;;6.61;100.00;102227.13;5073684;28;20024;-36
2021/11/05 09:20:10;;;;;;;13.30;7.78;;;;;;;6.78;100.00;102246.72;5073235;28;20510;-36
2021/11/05 09:22:36;;;;;;;;;;;;;;;6.85;100.00;102248.56;5073292;28;20032;-36
2021/11/05 09:25:02;;;;;;;10.35;7.72;;;;;;;6.97;100.00;102257.94;5073276;28;19908;-36
2021/11/05 09:27:29;;;;;;;12.32;7.35;;;;;;;6.87;100.00;102245.69;5072754;28;20028;-36
2021/11/05 09:29:55;;;;;;;16.63;8.13;;;;;;;6.95;100.00;102245.69;5072926;28;20024;-37
2021/11/05 09:32:21;;;;;;;;;;;;;;;7.13;100.00;102262.44;5073539;28;20040;-36
2021/11/05 09:34:47;;;;;;;12.93;8.30;;;;;;;7.08;100.00;102229.00;5072494;28;19908;-36
2021/11/05 09:37:13;;;;;;;18.00;7.30;;;;;;;7.28;100.00;102261.72;5073251;28;20057;-36
2021/11/05 09:39:39;;;;;;;14.00;7.55;;;;;;;7.35;100.00;102266.22;5070862;28;20384;-36
2021/11/05 09:42:04;;;;;;;13.77;7.00;;;;;;;7.44;100.00;102256.25;5072874;28;20024;-36
2021/11/05 09:44:31;;;;;;;11.83;6.53;;;;;;;7.63;100.00;102271.13;5072608;28;20020;-36
2021/11/05 09:47:03;;;;;;;13.10;6.53;;;;;;;7.70;100.00;102281.00;5073020;28;20262;-36
2021/11/05 09:49:30;;;;;;;10.30;7.20;;;;;;;7.78;100.00;102277.44;5072854;28;20240;-36
2021/11/05 09:51:59;;;;;;;11.95;7.20;;;;;;;7.92;100.00;102287.44;5073418;28;20031;-36
2021/11/05 09:54:27;;;;;;;10.23;5.75;;;;;;;7.94;100.00;102293.47;5072903;28;20032;-36
2021/11/05 09:56:53;;;;;;;9.70;5.15;;;;;;;8.03;100.00;102296.13;5072775;28;20076;-36
2021/11/05 09:59:19;;;;;;;9.45;5.20;;;;;;;8.09;100.00;102293.56;5072900;28;20433;-36
2021/11/05 10:01:46;;;;;;;14.98;4.90;;;;;;;8.20;100.00;102303.94;5072946;28;20031;-36
2021/11/05 10:04:11;;;;;;;10.65;4.45;;;;;;;8.34;100.00;102304.97;5073090;28;20048;-36
2021/11/05 10:06:39;;;;;;;12.77;5.25;;;;;;;8.35;100.00;102314.75;5073167;28;20377;-36
2021/11/05 10:09:14;;;;;;;13.77;4.82;;;;;;;8.34;100.00;102310.38;5073084;28;20379;-36
2021/11/05 10:11:39;;;;;;;10.65;4.40;;;;;;;8.44;100.00;102320.94;5073127;28;20025;-36
2021/11/05 10:14:20;;;;;;;11.00;4.73;;;;;;;8.57;100.00;102328.44;5072845;28;20083;-36
2021/11/05 10:17:03;;;;;;;9.95;4.90;;;;;;;8.62;100.00;102307.97;5073294;28;20267;-36
2021/11/05 10:19:54;;;;;;;14.15;5.50;;;;;;;8.89;100.00;102335.41;5073269;28;20033;-36
2021/11/05 10:22:39;;;;;;;11.73;4.80;;;;;;;8.96;100.00;102333.63;5072964;28;20036;-36
2021/11/05 10:25:19;;;;;;;10.57;4.72;;;;;;;8.93;100.00;102326.75;5072681;28;20028;-36
2021/11/05 10:27:45;;;;;;;13.48;4.68;;;;;;;8.93;100.00;102337.56;5073174;28;20412;-36
2021/11/05 10:30:11;;;;;;;9.30;4.85;;;;;;;8.95;100.00;102338.19;5073256;28;20035;-36
2021/11/05 10:32:40;;;;;;;6.35;4.00;;;;;;;8.81;100.00;102306.63;5072905;28;20029;-36
2021/11/05 10:35:21;;;;;;;11.60;4.70;;;;;;;8.89;100.00;102322.75;5072845;28;20456;-36
2021/11/05 10:37:46;;;;;;;10.77;4.40;;;;;;;8.93;100.00;102334.84;5073127;28;20518;-36
2021/11/05 10:40:12;;;;;;;9.13;4.33;;;;;;;8.93;100.00;102336.69;5072242;28;20028;-36
2021/11/05 10:42:45;;;;;;;9.45;4.40;;;;;;;8.88;100.00;102333.69;5073378;28;20028;-36
2021/11/05 10:45:20;;;;;;;8.38;4.80;;;;;;;8.93;100.00;102348.34;5073971;28;20441;-35
2021/11/05 10:47:55;;;;;;;9.02;4.72;;;;;;;9.02;100.00;102355.31;5076415;28;20031;-35
2021/11/05 10:50:22;;;;;;;10.10;4.30;;;;;;;9.22;100.00;102347.53;5076002;28;20024;-35
2021/11/05 10:53:01;;;;;;;12.05;5.10;;;;;;;9.38;100.00;102356.47;5076067;28;20032;-36
2021/11/05 10:55:48;;;;;;;11.05;4.20;;;;;;;9.51;100.00;102345.84;5075969;28;20028;-36
2021/11/05 10:58:15;;;;;;;8.90;4.00;;;;;;;9.67;100.00;102355.63;5076607;28;20408;-36
2021/11/05 11:00:42;;;;;;;7.28;3.80;;;;;;;9.62;100.00;102325.63;5075881;28;20030;-36
2021/11/05 11:03:31;;;;;;;8.35;3.40;;;;;;;9.97;100.00;102351.84;5075849;28;20116;-35
2021/11/05 11:06:14;;;;;;;8.80;3.28;;;;;;;10.09;100.00;102354.03;5074494;28;20031;-36
2021/11/05 11:08:44;;;;;;;11.57;4.60;;;;;;;10.22;100.00;102365.81;5075922;28;20423;-36
2021/11/05 11:11:16;;;;;;;8.57;3.47;;;;;;;10.23;100.00;102364.78;5075585;28;20032;-36
2021/11/05 11:13:43;;;;;;;10.68;4.35;;;;;;;10.17;100.00;102364.72;5075530;28;20078;-36
2021/11/05 11:16:15;;;;;;;11.35;3.67;;;;;;;10.15;100.00;102372.19;5075573;28;20039;-36
2021/11/05 11:18:49;;;;;;;9.77;3.42;;;;;;;10.10;100.00;102350.28;5076199;28;20062;-36